Kill Devil Hills, NC (27948)

2:56 PM EDT on May 27, 2015 (GMT -0400)
First Flight | | Change Station
CLOSE
Current Station
Airport
Location: Kill Devil Hills,
Elevation: 13 ft
Nearby Weather Stations

Elev 13 ft 36.02 °N, 75.67 °W | Updated 21 minutes ago

Scattered Clouds
Scattered Clouds
79 °F
Feels Like 79 °F
N
7
Wind Variable Wind from South
Gusts 18 mph

Today
High -- | Low -- °F
--% Chance of Precip.
Yesterday
High -- | Low -- °F
Precip. -- in
5:49 AM 8:10 PM
Waxing Gibbous, 69% visible
Pressure 30.25 in
Visibility -9999.0 miles
Clouds Scattered Clouds 7000 ft
Dew Point 65 °F
Humidity 62%
Rainfall 0.00 in
Snow Depth Not available.
UV 8 out of 12
Pollen 3.40 out of 12
Air Quality Not available.
Flu Activity No Activity
METAR KFFA 271835Z AUTO 18006G16KT SCT070 26/19 A3025 RMK AO2 T02620185 PWINO

More Conditions Fewer Conditions

Pressure 30.25 in
Visibility -9999.0 miles
Clouds Scattered Clouds 7000 ft
Dew Point 65 °F
Humidity 62%
Rainfall 0.00 in
Snow Depth Not available.
UV 8 out of 12
Pollen 3.40 out of 12
Air Quality Not available.
Flu Activity No Activity
METAR KFFA 271835Z AUTO 18006G16KT SCT070 26/19 A3025 RMK AO2 T02620185 PWINO

More Conditions Fewer Conditions

10-Day Weather Forecast

Almanac

Astronomy

May. 27, 2015 Rise Set
Actual Time
Civil Twilight
Nautical Twilight
Astronomical Twilight
Moon
Length of Visible Light
Length of Day
Tomorrow will be .
, % of the Moon is Illuminated

Today's Extremes

State Highs State Lows

Community

WunderPhotos

Upload Photos

1,824,757 photos uploaded!

WunderBlogs® & News

Nearby

Air Quality

  Air Quality AQ Index Pollutant
Not available.

Snow Depth

Station Depth Elevation

Earthquake Activity

City Distance Mag. Time & Date
Minimum magnitude displayed is 2.5.

Coastal Water Temperatures

Place Temperature

Stations

Nearby Weather Stations

Station Location Temp. Windchill Dew Point Humidity Wind Precip. Elev Updated Type